Accueil
METAR-TAF:

METAR-TAF

Aéroports :

Aéroport de Sion

Sion, Suisse

latitude: 46-13N, longitude: 007-20E, altitude: 482 m

Observation

Le bulletin a été fait il y a 19 minutes, à 06:20 UTC
Vent calme
Température 5°C
Humidité 93%
Pression 1017 hPa
Visibilité: 5000 m
Nuages fragmentés
pluie faible

METAR: LSGS 080620Z AUTO 00000KT 5000 -RA BKN/// 05/04 Q1017

Heure: 07:39 (06:39 UTC)

Prévision

Le bulletin a été fait il y a 1 heure et 14 minutes, à 05:25 UTC
Prévision valable du 08 à 06 UTC au 08 à 15 UTC
Vent 3 kt de direction variable
Visibilité 10 km ou plus
Nuages fragmentés à une hauteur de 6000 ft
Evoluant progressivement
du 08 à 13 UTC au 08 à 15 UTC
Vent 10 kt de ouest

TAF: LSGS 080525Z 0806/0815 VRB03KT 9999 BKN060 BECMG 0813/0815 26010KT

Observations et prévisions météorologiques de plus de 4000 aéroports (messages METAR et TAF).

Les stations disponibles sont représentées par des disques jaunes et rouges sur la carte.

Passer la souris dessus pour voir le nom de la station.

Cliquer dessus pour voir les observations et prévisions météorologiques.

Pour changer de carte: cliquez sur les boutons verts avec une croix noire pour zoomer, sur le bouton vert avec un tiret pour effectuer un zoom arrière, ou sur les flèches vertes pour les cartes adjacentes.


METAR-TAF: